Time;durP1;ratioP1;P1;durP2;ratioP2;P2;SDS_P1;SDS_P2;PMS_P1;PMS_P2;Temp;Humidity;BMP_temperature;BMP_pressure;BME280_temperature;BME280_humidity;BME280_pressure;Samples;Min_cycle;Max_cycle;Signal;HPM_P1;HPM_P2
2023/04/22 00:01:35;;;;;;;;;;;358.60;2329.60;;;;;;5029863;28;19909;-72
2023/04/22 00:04:01;;;;;;;;;;;358.70;2329.60;;;;;;5031611;28;19913;-72
2023/04/22 00:06:27;;;;;;;;;;;358.60;2329.60;;;;;;5040513;28;19905;-71
2023/04/22 00:08:52;;;;;;;;;;;358.60;2329.60;;;;;;5024469;28;20429;-73
2023/04/22 00:11:18;;;;;;;;;;;358.60;2329.60;;;;;;5027746;28;20011;-72
2023/04/22 00:13:44;;;;;;;;;;;358.50;2329.60;;;;;;5032997;28;19982;-72
2023/04/22 00:16:09;;;;;;;;;;;358.60;2329.60;;;;;;5036933;28;19905;-72
2023/04/22 00:18:35;;;;;;;;;;;358.50;2329.60;;;;;;5029103;28;19913;-71
2023/04/22 00:21:01;;;;;;;;;;;358.50;2329.60;;;;;;5033647;28;19905;-71
2023/04/22 00:23:26;;;;;;;;;;;358.50;2329.60;;;;;;5030652;28;19905;-72
2023/04/22 00:25:52;;;;;;;;;;;358.50;2329.60;;;;;;5033989;28;19905;-71
2023/04/22 00:28:17;;;;;;;;;;;358.50;2329.60;;;;;;5036110;28;20350;-72
2023/04/22 00:30:43;;;;;;;;;;;358.50;2329.60;;;;;;5034485;28;20353;-71
2023/04/22 00:33:09;;;;;;;;;;;358.50;2329.60;;;;;;5027153;28;19975;-71
2023/04/22 00:35:34;;;;;;;;;;;358.50;2329.60;;;;;;5032818;28;19905;-72
2023/04/22 00:38:00;;;;;;;;;;;358.60;2329.60;;;;;;5039879;28;20352;-71
2023/04/22 00:40:25;;;;;;;;;;;358.70;2329.60;;;;;;5036762;28;20364;-71
2023/04/22 00:42:51;;;;;;;;;;;358.70;2329.60;;;;;;5030650;28;20012;-72
2023/04/22 00:45:18;;;;;;;;;;;358.70;2329.60;;;;;;5035737;28;19905;-71
2023/04/22 00:47:44;;;;;;;;;;;358.70;2329.60;;;;;;5035720;28;19905;-72
2023/04/22 00:50:10;;;;;;;;;;;358.80;2329.60;;;;;;5032091;28;20000;-72
2023/04/22 00:52:36;;;;;;;;;;;358.80;2329.60;;;;;;5036145;28;20004;-71
2023/04/22 00:55:01;;;;;;;;;;;358.80;2329.60;;;;;;5034638;28;19966;-72
2023/04/22 00:57:28;;;;;;;;;;;358.90;2329.60;;;;;;5034245;28;20330;-71
2023/04/22 00:59:54;;;;;;;;;;;358.90;2329.60;;;;;;5014692;28;20401;-72
2023/04/22 01:02:19;;;;;;;;;;;358.90;2329.60;;;;;;5014537;28;19910;-72
2023/04/22 01:04:45;;;;;;;;;;;358.80;2329.60;;;;;;5014585;28;20060;-72
2023/04/22 01:07:11;;;;;;;;;;;358.90;2329.60;;;;;;5014650;28;20480;-71
2023/04/22 01:09:38;;;;;;;;;;;359.00;2329.60;;;;;;5021136;28;19955;-72
2023/04/22 01:12:04;;;;;;;;;;;359.00;2329.60;;;;;;5032657;28;20035;-78
2023/04/22 01:14:30;;;;;;;;;;;359.00;2329.60;;;;;;5033719;28;19955;-72
2023/04/22 01:16:56;;;;;;;;;;;359.00;2329.60;;;;;;5033133;28;19909;-72
2023/04/22 01:19:22;;;;;;;;;;;359.00;2329.60;;;;;;5033277;28;19913;-75
2023/04/22 01:21:51;;;;;;;;;;;359.00;2329.60;;;;;;5033535;28;19905;-78
2023/04/22 01:24:17;;;;;;;;;;;359.00;2329.60;;;;;;5033498;28;19948;-73
2023/04/22 01:26:43;;;;;;;;;;;358.90;2329.60;;;;;;5032610;28;20297;-72
2023/04/22 01:29:08;;;;;;;;;;;358.90;2329.60;;;;;;5033104;28;19948;-72
2023/04/22 01:31:35;;;;;;;;;;;358.80;2329.60;;;;;;5032698;28;19913;-72
2023/04/22 01:34:00;;;;;;;;;;;358.70;2329.60;;;;;;5033202;28;19913;-72
2023/04/22 01:36:26;;;;;;;;;;;358.70;2329.60;;;;;;5033013;28;19905;-72
2023/04/22 01:38:52;;;;;;;;;;;358.70;2329.60;;;;;;5032784;28;19921;-72
2023/04/22 01:41:18;;;;;;;;;;;358.70;2329.60;;;;;;5032990;28;19928;-72
2023/04/22 01:43:44;;;;;;;;;;;358.60;2329.60;;;;;;5033011;28;19905;-72
2023/04/22 01:46:09;;;;;;;;;;;358.70;2329.60;;;;;;5033028;28;19890;-72
2023/04/22 01:48:36;;;;;;;;;;;358.80;2329.60;;;;;;5032845;28;20568;-72
2023/04/22 01:51:01;;;;;;;;;;;358.80;2329.60;;;;;;5033296;28;19920;-72
2023/04/22 01:53:27;;;;;;;;;;;358.90;2329.60;;;;;;5032833;28;19905;-72
2023/04/22 01:55:52;;;;;;;;;;;358.90;2329.60;;;;;;5033221;28;19905;-72
2023/04/22 01:58:18;;;;;;;;;;;359.00;2329.60;;;;;;5032738;28;19909;-72
2023/04/22 02:00:44;;;;;;;;;;;359.00;2329.60;;;;;;5032616;28;19996;-72
2023/04/22 02:03:10;;;;;;;;;;;358.90;2329.60;;;;;;5032665;28;19917;-72
2023/04/22 02:05:36;;;;;;;;;;;358.80;2329.60;;;;;;5030109;28;19912;-72
2023/04/22 02:08:01;;;;;;;;;;;358.70;2329.60;;;;;;5032798;28;19909;-72
2023/04/22 02:10:27;;;;;;;;;;;358.80;2329.60;;;;;;5032608;28;20281;-71
2023/04/22 02:12:52;;;;;;;;;;;358.70;2329.60;;;;;;5032506;28;19917;-72
2023/04/22 02:15:18;;;;;;;;;;;358.70;2329.60;;;;;;5032861;28;19967;-71
2023/04/22 02:17:43;;;;;;;;;;;358.70;2329.60;;;;;;5033242;28;20007;-72
2023/04/22 02:20:10;;;;;;;;;;;358.70;2329.60;;;;;;5033137;28;19909;-79
2023/04/22 02:22:36;;;;;;;;;;;358.80;2329.60;;;;;;5032651;28;19905;-72
2023/04/22 02:25:02;;;;;;;;;;;358.80;2329.60;;;;;;5032719;28;20006;-72
2023/04/22 02:27:27;;;;;;;;;;;358.80;2329.60;;;;;;5032808;28;19951;-72
2023/04/22 02:29:53;;;;;;;;;;;358.80;2329.60;;;;;;5032559;28;19909;-71
2023/04/22 02:32:19;;;;;;;;;;;358.80;2329.60;;;;;;5032140;28;20409;-72
2023/04/22 02:34:46;;;;;;;;;;;358.80;2329.60;;;;;;5032445;28;19995;-72
2023/04/22 02:37:11;;;;;;;;;;;358.80;2329.60;;;;;;5032504;28;19956;-72
2023/04/22 02:39:37;;;;;;;;;;;358.80;2329.60;;;;;;5036059;28;20006;-72
2023/04/22 02:42:02;;;;;;;;;;;358.80;2329.60;;;;;;5036188;28;19920;-72
2023/04/22 02:44:28;;;;;;;;;;;358.70;2329.60;;;;;;5036097;28;19905;-72
2023/04/22 02:46:53;;;;;;;;;;;358.60;2329.60;;;;;;5035882;28;19997;-72
2023/04/22 02:49:19;;;;;;;;;;;358.50;2329.60;;;;;;5035956;28;19945;-72
2023/04/22 02:51:44;;;;;;;;;;;358.60;2329.60;;;;;;5036107;28;19908;-72
2023/04/22 02:54:10;;;;;;;;;;;358.70;2329.60;;;;;;5036057;28;19909;-72
2023/04/22 02:56:36;;;;;;;;;;;358.80;2329.60;;;;;;5035764;28;19971;-72
2023/04/22 02:59:01;;;;;;;;;;;358.70;2329.60;;;;;;5035871;28;19917;-71
2023/04/22 03:01:27;;;;;;;;;;;358.70;2329.60;;;;;;5035572;28;19916;-72
2023/04/22 03:03:52;;;;;;;;;;;358.70;2329.60;;;;;;5034521;28;19915;-72
2023/04/22 03:06:18;;;;;;;;;;;358.70;2329.60;;;;;;5035537;28;20258;-72
2023/04/22 03:08:43;;;;;;;;;;;358.70;2329.60;;;;;;5035589;28;19906;-72
2023/04/22 03:11:09;;;;;;;;;;;358.60;2329.60;;;;;;5035789;28;19930;-72
2023/04/22 03:13:34;;;;;;;;;;;358.60;2329.60;;;;;;5035685;28;20700;-72
2023/04/22 03:16:00;;;;;;;;;;;358.60;2329.60;;;;;;5035509;28;20269;-72
2023/04/22 03:18:25;;;;;;;;;;;358.70;2329.60;;;;;;5035407;28;19920;-72
2023/04/22 03:20:51;;;;;;;;;;;358.60;2329.60;;;;;;5035322;28;19968;-80
2023/04/22 03:23:17;;;;;;;;;;;358.60;2329.60;;;;;;5035356;28;20246;-72
2023/04/22 03:25:42;;;;;;;;;;;358.60;2329.60;;;;;;5035348;28;19905;-72
2023/04/22 03:28:08;;;;;;;;;;;358.50;2329.60;;;;;;5035539;28;19912;-72
2023/04/22 03:30:33;;;;;;;;;;;358.50;2329.60;;;;;;5035344;28;19909;-78
2023/04/22 03:32:59;;;;;;;;;;;358.50;2329.60;;;;;;5034969;28;19921;-79
2023/04/22 03:35:24;;;;;;;;;;;358.50;2329.60;;;;;;5035316;28;20008;-72
2023/04/22 03:37:50;;;;;;;;;;;358.50;2329.60;;;;;;5035085;28;19905;-79
2023/04/22 03:40:15;;;;;;;;;;;358.40;2329.60;;;;;;5035348;28;19956;-72
2023/04/22 03:42:41;;;;;;;;;;;333.70;2329.60;;;;;;5035093;28;19972;-72
2023/04/22 03:45:06;;;;;;;;;;;333.70;2329.60;;;;;;5035225;28;19905;-71
2023/04/22 03:47:32;;;;;;;;;;;333.70;2329.60;;;;;;5035050;28;19909;-72
2023/04/22 03:49:58;;;;;;;;;;;333.70;2329.60;;;;;;5034440;28;19913;-73
2023/04/22 03:52:23;;;;;;;;;;;333.70;2329.60;;;;;;5034696;28;20307;-72
2023/04/22 03:54:49;;;;;;;;;;;333.70;2329.60;;;;;;5034769;28;20330;-72
2023/04/22 03:57:14;;;;;;;;;;;333.70;2329.60;;;;;;5034794;28;19905;-72
2023/04/22 03:59:40;;;;;;;;;;;333.70;2329.60;;;;;;5033276;28;19913;-72
2023/04/22 04:02:06;;;;;;;;;;;333.60;2329.60;;;;;;5034642;28;19909;-73
2023/04/22 04:04:33;;;;;;;;;;;333.50;2329.60;;;;;;5034931;28;19920;-73
2023/04/22 04:06:59;;;;;;;;;;;333.50;2329.60;;;;;;5035249;28;19905;-72
2023/04/22 04:09:24;;;;;;;;;;;333.50;2329.60;;;;;;5031705;28;20288;-72
2023/04/22 04:11:50;;;;;;;;;;;333.40;2329.60;;;;;;5034500;28;20284;-78
2023/04/22 04:14:15;;;;;;;;;;;333.50;2329.60;;;;;;5034606;28;20336;-72
2023/04/22 04:16:41;;;;;;;;;;;333.50;2329.60;;;;;;5034166;28;19905;-72
2023/04/22 04:19:07;;;;;;;;;;;333.50;2329.60;;;;;;5034268;28;20354;-79
2023/04/22 04:21:33;;;;;;;;;;;333.50;2329.60;;;;;;5034441;28;19911;-72
2023/04/22 04:23:58;;;;;;;;;;;333.50;2329.60;;;;;;5034386;28;19912;-72
2023/04/22 04:26:26;;;;;;;;;;;333.40;2329.60;;;;;;5034152;28;19905;-73
2023/04/22 04:28:52;;;;;;;;;;;333.40;2329.60;;;;;;5034432;28;20286;-73
2023/04/22 04:31:18;;;;;;;;;;;333.30;2329.60;;;;;;5034291;28;19916;-79
2023/04/22 04:33:43;;;;;;;;;;;333.40;2329.60;;;;;;5034196;28;19924;-73
2023/04/22 04:36:09;;;;;;;;;;;333.50;2329.60;;;;;;5034568;28;20297;-80
2023/04/22 04:38:35;;;;;;;;;;;333.50;2329.60;;;;;;5032636;28;19920;-72
2023/04/22 04:41:01;;;;;;;;;;;333.60;2329.60;;;;;;5034137;28;19905;-78
2023/04/22 04:43:28;;;;;;;;;;;333.60;2329.60;;;;;;5034050;28;19944;-73
2023/04/22 04:45:53;;;;;;;;;;;333.70;2329.60;;;;;;5034138;28;20296;-79
2023/04/22 04:48:19;;;;;;;;;;;333.70;2329.60;;;;;;5033826;28;19920;-73
2023/04/22 04:50:44;;;;;;;;;;;333.70;2329.60;;;;;;5033801;28;20274;-73
2023/04/22 04:53:10;;;;;;;;;;;333.60;2329.60;;;;;;5033875;28;19905;-73
2023/04/22 04:55:36;;;;;;;;;;;333.70;2329.60;;;;;;5033655;28;19905;-73
2023/04/22 04:58:02;;;;;;;;;;;333.70;2329.60;;;;;;5033859;28;19917;-73
2023/04/22 05:00:27;;;;;;;;;;;333.70;2329.60;;;;;;5033420;28;19909;-74
2023/04/22 05:02:53;;;;;;;;;;;358.50;2329.60;;;;;;5027744;28;19948;-72
2023/04/22 05:05:19;;;;;;;;;;;358.50;2329.60;;;;;;5031963;28;19905;-72
2023/04/22 05:07:44;;;;;;;;;;;358.40;2329.60;;;;;;5030771;28;19905;-72
2023/04/22 05:10:10;;;;;;;;;;;333.70;2329.60;;;;;;5025813;28;19958;-72
2023/04/22 05:12:36;;;;;;;;;;;333.70;2329.60;;;;;;5039120;28;19951;-75
2023/04/22 05:15:02;;;;;;;;;;;333.60;2329.60;;;;;;5034009;28;19913;-72
2023/04/22 05:17:27;;;;;;;;;;;333.60;2329.60;;;;;;5038426;28;20051;-73
2023/04/22 05:19:53;;;;;;;;;;;333.50;2329.60;;;;;;5029679;28;19912;-74
2023/04/22 05:22:19;;;;;;;;;;;333.50;2329.60;;;;;;5030959;28;19909;-74
2023/04/22 05:24:44;;;;;;;;;;;333.60;2329.60;;;;;;5029083;28;19905;-75
2023/04/22 05:27:10;;;;;;;;;;;333.70;2329.60;;;;;;5041791;28;20394;-74
2023/04/22 05:29:36;;;;;;;;;;;333.70;2329.60;;;;;;5029196;28;19912;-73
2023/04/22 05:32:01;;;;;;;;;;;358.40;2329.60;;;;;;5033079;28;19925;-72
2023/04/22 05:34:27;;;;;;;;;;;358.40;2329.60;;;;;;5026439;28;19917;-73
2023/04/22 05:36:52;;;;;;;;;;;358.50;2329.60;;;;;;5030484;28;19959;-74
2023/04/22 05:39:18;;;;;;;;;;;358.60;2278.40;;;;;;5034966;28;19949;-74
2023/04/22 05:41:44;;;;;;;;;;;358.60;2252.80;;;;;;5034056;28;19904;-74
2023/04/22 05:44:09;;;;;;;;;;;358.50;2329.60;;;;;;5032783;28;20265;-74
2023/04/22 05:46:35;;;;;;;;;;;358.70;2227.20;;;;;;5038628;28;20341;-73
2023/04/22 05:49:01;;;;;;;;;;;358.70;2201.60;;;;;;5044207;28;19904;-72
2023/04/22 05:51:26;;;;;;;;;;;358.80;2150.40;;;;;;5034075;28;19956;-74
2023/04/22 05:53:52;;;;;;;;;;;358.80;2124.80;;;;;;5025289;28;19916;-73
2023/04/22 05:56:18;;;;;;;;;;;358.90;2073.60;;;;;;5040796;28;19905;-73
2023/04/22 05:58:43;;;;;;;;;;;359.00;2124.80;;;;;;5033721;28;20373;-74
2023/04/22 06:01:09;;;;;;;;;;;359.00;2099.20;;;;;;5031688;28;20002;-74
2023/04/22 06:03:34;;;;;;;;;;;359.00;2099.20;;;;;;5033935;28;19920;-73
2023/04/22 06:06:00;;;;;;;;;;;359.20;2150.40;;;;;;5021778;28;19905;-74
2023/04/22 06:08:26;;;;;;;;;;;359.30;2176.00;;;;;;5028180;28;19920;-74
2023/04/22 06:10:51;;;;;;;;;;;359.30;2176.00;;;;;;5031643;28;19911;-76
2023/04/22 06:13:17;;;;;;;;;;;384.00;2176.00;;;;;;5037185;28;20039;-74
2023/04/22 06:15:42;;;;;;;;;;;384.10;2124.80;;;;;;5038271;28;19919;-73
2023/04/22 06:18:08;;;;;;;;;;;384.00;2150.40;;;;;;5035135;28;19940;-73
2023/04/22 06:20:34;;;;;;;;;;;384.20;2176.00;;;;;;5031138;28;19916;-73
2023/04/22 06:23:00;;;;;;;;;;;384.20;2176.00;;;;;;5035159;28;20392;-74
2023/04/22 06:25:26;;;;;;;;;;;384.30;2201.60;;;;;;5042903;28;19944;-75
2023/04/22 06:27:51;;;;;;;;;;;384.40;2201.60;;;;;;5034993;28;19913;-73
2023/04/22 06:30:17;;;;;;;;;;;384.60;2227.20;;;;;;5036372;28;19911;-72
2023/04/22 06:32:43;;;;;;;;;;;384.60;2201.60;;;;;;5038659;28;19928;-75
2023/04/22 06:35:08;;;;;;;;;;;384.70;2176.00;;;;;;5031377;28;19911;-75
2023/04/22 06:37:34;;;;;;;;;;;384.90;2176.00;;;;;;5035958;28;19909;-74
2023/04/22 06:39:59;;;;;;;;;;;409.60;2150.40;;;;;;5035921;28;19913;-76
2023/04/22 06:42:25;;;;;;;;;;;409.70;2201.60;;;;;;5033028;28;19966;-74
2023/04/22 06:44:50;;;;;;;;;;;409.80;2176.00;;;;;;5037579;28;19926;-77
2023/04/22 06:47:16;;;;;;;;;;;409.90;2227.20;;;;;;5030401;28;19906;-74
2023/04/22 06:49:43;;;;;;;;;;;410.00;2201.60;;;;;;5027167;28;20377;-73
2023/04/22 06:52:09;;;;;;;;;;;410.20;2022.40;;;;;;5027579;28;19909;-73
2023/04/22 06:54:34;;;;;;;;;;;410.30;2099.20;;;;;;5030087;28;19925;-73
2023/04/22 06:57:00;;;;;;;;;;;410.40;2048.00;;;;;;5026022;28;19953;-73
2023/04/22 06:59:26;;;;;;;;;;;410.50;2022.40;;;;;;5030759;28;20380;-73
2023/04/22 07:01:51;;;;;;;;;;;435.20;2022.40;;;;;;5035364;28;19910;-74
2023/04/22 07:04:17;;;;;;;;;;;435.40;1996.80;;;;;;5039130;28;19913;-73
2023/04/22 07:06:42;;;;;;;;;;;435.50;1996.80;;;;;;5032913;28;19948;-73
2023/04/22 07:09:08;;;;;;;;;;;435.60;1971.20;;;;;;5041258;28;19959;-72
2023/04/22 07:11:34;;;;;;;;;;;435.80;1920.00;;;;;;5037515;28;19944;-71
2023/04/22 07:13:59;;;;;;;;;;;435.80;1894.40;;;;;;5027639;28;19913;-71
2023/04/22 07:16:25;;;;;;;;;;;435.80;1920.00;;;;;;5033591;28;20011;-71
2023/04/22 07:18:50;;;;;;;;;;;436.10;1868.80;;;;;;5034801;28;19920;-71
2023/04/22 07:21:16;;;;;;;;;;;436.10;1843.20;;;;;;5033145;28;19931;-71
2023/04/22 07:23:42;;;;;;;;;;;460.80;1843.20;;;;;;5033604;28;19909;-71
2023/04/22 07:26:07;;;;;;;;;;;460.90;1817.60;;;;;;5024523;28;19905;-71
2023/04/22 07:28:33;;;;;;;;;;;461.00;1843.20;;;;;;5030178;28;19959;-71
2023/04/22 07:30:58;;;;;;;;;;;461.10;1792.00;;;;;;5028716;28;19963;-71
2023/04/22 07:33:24;;;;;;;;;;;461.20;1817.60;;;;;;5033635;28;19928;-71
2023/04/22 07:35:49;;;;;;;;;;;461.30;1792.00;;;;;;5033953;28;20354;-71
2023/04/22 07:38:15;;;;;;;;;;;461.40;1766.40;;;;;;5038732;28;20301;-71
2023/04/22 07:40:40;;;;;;;;;;;461.60;1817.60;;;;;;5026836;28;19905;-70
2023/04/22 07:43:06;;;;;;;;;;;461.60;1766.40;;;;;;5028922;28;19905;-71
2023/04/22 07:45:32;;;;;;;;;;;461.70;1740.80;;;;;;5035888;28;20333;-70
2023/04/22 07:47:57;;;;;;;;;;;486.40;1740.80;;;;;;5027155;28;19913;-73
2023/04/22 07:50:23;;;;;;;;;;;486.50;1740.80;;;;;;5030716;28;19959;-71
2023/04/22 07:52:48;;;;;;;;;;;486.40;1715.20;;;;;;5029057;28;19950;-71
2023/04/22 07:55:14;;;;;;;;;;;486.50;1715.20;;;;;;5030865;28;19905;-72
2023/04/22 07:57:40;;;;;;;;;;;486.60;1715.20;;;;;;5038706;28;20430;-70
2023/04/22 08:00:06;;;;;;;;;;;486.80;1689.60;;;;;;5034108;28;19991;-71
2023/04/22 08:02:32;;;;;;;;;;;486.70;1689.60;;;;;;5032284;28;19908;-71
2023/04/22 08:04:57;;;;;;;;;;;486.80;1689.60;;;;;;5037318;28;19955;-71
2023/04/22 08:07:23;;;;;;;;;;;486.90;1715.20;;;;;;5030302;28;20354;-71
2023/04/22 08:09:49;;;;;;;;;;;486.80;1740.80;;;;;;5030011;28;20338;-72
2023/04/22 08:12:14;;;;;;;;;;;487.10;1689.60;;;;;;5033334;28;19905;-73
2023/04/22 08:14:40;;;;;;;;;;;487.10;1638.40;;;;;;5038355;28;20373;-72
2023/04/22 08:17:06;;;;;;;;;;;487.10;1638.40;;;;;;5032552;28;19905;-72
2023/04/22 08:19:31;;;;;;;;;;;487.10;1536.00;;;;;;5035534;28;20361;-71
2023/04/22 08:21:57;;;;;;;;;;;487.10;1587.20;;;;;;5036549;28;19911;-72
2023/04/22 08:24:23;;;;;;;;;;;487.10;1587.20;;;;;;5029478;28;19997;-72
2023/04/22 08:26:48;;;;;;;;;;;487.30;1612.80;;;;;;5033468;28;19908;-72
2023/04/22 08:29:14;;;;;;;;;;;487.30;1587.20;;;;;;5027492;28;20357;-71
2023/04/22 08:31:40;;;;;;;;;;;487.30;1536.00;;;;;;5035503;28;19916;-71
2023/04/22 08:34:06;;;;;;;;;;;512.00;1561.60;;;;;;5035456;28;20006;-71
2023/04/22 08:36:31;;;;;;;;;;;512.10;1587.20;;;;;;5032375;28;20352;-72
2023/04/22 08:38:57;;;;;;;;;;;512.20;1484.80;;;;;;5035261;28;19913;-73
2023/04/22 08:41:25;;;;;;;;;;;512.30;1459.20;;;;;;5032938;28;20000;-72
2023/04/22 08:43:52;;;;;;;;;;;512.40;1382.40;;;;;;5030087;28;20306;-71
2023/04/22 08:46:22;;;;;;;;;;;512.50;1280.00;;;;;;5038015;28;19905;-73
2023/04/22 08:48:49;;;;;;;;;;;512.60;1331.20;;;;;;5034405;28;19988;-71
2023/04/22 08:51:15;;;;;;;;;;;512.70;1305.60;;;;;;5026711;28;19951;-71
2023/04/22 08:53:42;;;;;;;;;;;512.70;1382.40;;;;;;5035942;28;19968;-71
2023/04/22 08:56:08;;;;;;;;;;;512.80;1408.00;;;;;;5032131;28;19906;-72
2023/04/22 08:58:33;;;;;;;;;;;512.80;1382.40;;;;;;5031417;28;19995;-72
2023/04/22 09:01:00;;;;;;;;;;;512.90;1382.40;;;;;;5024463;28;19955;-73
2023/04/22 09:03:25;;;;;;;;;;;512.90;1382.40;;;;;;5034423;28;19909;-74
2023/04/22 09:05:52;;;;;;;;;;;512.90;1382.40;;;;;;5028078;28;19913;-75
2023/04/22 09:08:18;;;;;;;;;;;537.60;1382.40;;;;;;5034859;28;20272;-73
2023/04/22 09:10:44;;;;;;;;;;;537.80;1408.00;;;;;;5032944;28;19905;-73
2023/04/22 09:13:10;;;;;;;;;;;537.90;1356.80;;;;;;5031915;28;20349;-74
2023/04/22 09:15:36;;;;;;;;;;;537.90;1280.00;;;;;;5026106;28;19904;-73
2023/04/22 09:18:03;;;;;;;;;;;538.00;1305.60;;;;;;5025248;28;20043;-73
2023/04/22 09:20:28;;;;;;;;;;;538.10;1280.00;;;;;;5038177;28;19913;-73
2023/04/22 09:22:55;;;;;;;;;;;538.30;1331.20;;;;;;5023829;28;19911;-73
2023/04/22 09:25:21;;;;;;;;;;;538.40;1331.20;;;;;;5018123;28;20353;-73
2023/04/22 09:27:51;;;;;;;;;;;538.50;1331.20;;;;;;5029160;28;19916;-73
2023/04/22 09:30:18;;;;;;;;;;;538.50;1331.20;;;;;;5026928;28;19905;-74
2023/04/22 09:32:51;;;;;;;;;;;563.30;1356.80;;;;;;5024831;28;19925;-73
2023/04/22 09:35:21;;;;;;;;;;;563.40;1305.60;;;;;;5035309;28;19959;-72
2023/04/22 09:37:50;;;;;;;;;;;563.50;1280.00;;;;;;5035385;28;19991;-72
2023/04/22 09:40:17;;;;;;;;;;;563.60;1280.00;;;;;;5020950;28;19949;-72
2023/04/22 09:42:52;;;;;;;;;;;563.60;1254.40;;;;;;5032219;28;19955;-73
2023/04/22 09:45:28;;;;;;;;;;;563.70;1254.40;;;;;;5034583;28;20003;-73
2023/04/22 09:47:58;;;;;;;;;;;563.90;1228.80;;;;;;5031273;28;19905;-74
2023/04/22 09:50:25;;;;;;;;;;;563.90;1177.60;;;;;;5035740;28;19908;-73
2023/04/22 09:53:10;;;;;;;;;;;564.10;1177.60;;;;;;5038466;28;20474;-73
2023/04/22 09:55:37;;;;;;;;;;;588.80;1100.80;;;;;;5027278;28;19909;-73
2023/04/22 09:58:07;;;;;;;;;;;589.00;1100.80;;;;;;5028876;28;19988;-74
2023/04/22 10:00:33;;;;;;;;;;;589.10;1126.40;;;;;;5043298;28;19909;-74
2023/04/22 10:02:59;;;;;;;;;;;589.40;1126.40;;;;;;5030531;28;19913;-74
2023/04/22 10:05:25;;;;;;;;;;;589.50;1024.00;;;;;;5034947;28;19971;-74
2023/04/22 10:07:51;;;;;;;;;;;589.70;1024.00;;;;;;5040000;28;19905;-74
2023/04/22 10:10:17;;;;;;;;;;;589.70;972.80;;;;;;5028830;28;19928;-73
2023/04/22 10:12:43;;;;;;;;;;;614.50;998.40;;;;;;5034401;28;19963;-74
2023/04/22 10:15:08;;;;;;;;;;;614.70;998.40;;;;;;5022300;28;19909;-73
2023/04/22 10:17:36;;;;;;;;;;;614.80;972.80;;;;;;5027354;28;20353;-74
2023/04/22 10:20:03;;;;;;;;;;;589.70;972.80;;;;;;5033089;28;19916;-73
2023/04/22 10:22:30;;;;;;;;;;;614.50;1024.00;;;;;;5020428;28;19905;-74
2023/04/22 10:24:57;;;;;;;;;;;614.70;972.80;;;;;;5026349;28;19905;-74
2023/04/22 10:27:22;;;;;;;;;;;614.90;972.80;;;;;;5035160;28;19968;-74
2023/04/22 10:29:48;;;;;;;;;;;615.00;921.60;;;;;;5036257;28;19991;-74
2023/04/22 10:32:16;;;;;;;;;;;615.20;947.20;;;;;;5028981;28;19924;-73
2023/04/22 10:34:42;;;;;;;;;;;640.00;896.00;;;;;;5039112;28;20010;-74
2023/04/22 10:37:10;;;;;;;;;;;640.00;921.60;;;;;;5022549;28;19927;-73
2023/04/22 10:39:36;;;;;;;;;;;640.20;921.60;;;;;;5016755;28;19917;-74
2023/04/22 10:42:02;;;;;;;;;;;;;;;;;;5025947;28;19905;-75
2023/04/22 10:44:29;;;;;;;;;;;640.50;896.00;;;;;;5029263;28;19905;-74
2023/04/22 10:46:55;;;;;;;;;;;640.60;870.40;;;;;;5029763;28;19958;-74
2023/04/22 10:49:22;;;;;;;;;;;640.70;870.40;;;;;;5024354;28;19905;-73
2023/04/22 10:51:48;;;;;;;;;;;640.80;870.40;;;;;;5036213;28;19905;-73
2023/04/22 10:54:28;;;;;;;;;;;640.90;819.20;;;;;;5023458;28;19983;-73
2023/04/22 10:56:59;;;;;;;;;;;665.70;844.80;;;;;;5036147;28;20423;-73
2023/04/22 10:59:24;;;;;;;;;;;640.90;793.60;;;;;;5036593;28;19956;-78
2023/04/22 11:01:51;;;;;;;;;;;665.80;844.80;;;;;;5037968;28;19959;-78
2023/04/22 11:04:21;;;;;;;;;;;665.70;896.00;;;;;;5037200;28;19924;-73
2023/04/22 11:07:25;;;;;;;;;;;666.20;921.60;;;;;;5025831;28;20356;-74
2023/04/22 11:09:57;;;;;;;;;;;666.30;870.40;;;;;;5060181;28;19947;-72
2023/04/22 11:12:38;;;;;;;;;;;666.40;870.40;;;;;;5057004;28;19940;-72
2023/04/22 11:15:06;;;;;;;;;;;666.00;819.20;;;;;;5065386;28;19905;-72
2023/04/22 11:17:32;;;;;;;;;;;640.70;844.80;;;;;;5056505;28;19908;-73
2023/04/22 11:19:58;;;;;;;;;;;640.10;870.40;;;;;;5064605;28;19912;-74
2023/04/22 11:22:23;;;;;;;;;;;615.20;870.40;;;;;;5064571;28;20296;-79
2023/04/22 11:24:55;;;;;;;;;;;615.20;896.00;;;;;;5059083;28;19905;-74
2023/04/22 11:27:25;;;;;;;;;;;614.90;844.80;;;;;;5054219;28;19916;-73
2023/04/22 11:30:01;;;;;;;;;;;614.50;870.40;;;;;;5058730;28;20423;-74
2023/04/22 11:32:27;;;;;;;;;;;614.40;947.20;;;;;;5043754;28;19924;-73
2023/04/22 11:34:52;;;;;;;;;;;614.70;896.00;;;;;;5034823;28;19920;-75
2023/04/22 11:37:18;;;;;;;;;;;614.60;921.60;;;;;;5033464;28;20004;-73
2023/04/22 11:39:44;;;;;;;;;;;614.40;896.00;;;;;;5029146;28;20381;-73
2023/04/22 11:42:11;;;;;;;;;;;589.70;896.00;;;;;;4991383;28;20343;-75
2023/04/22 11:44:37;;;;;;;;;;;614.60;870.40;;;;;;4986850;28;19913;-74
2023/04/22 11:47:03;;;;;;;;;;;615.30;844.80;;;;;;4987235;28;19910;-73
2023/04/22 11:49:31;;;;;;;;;;;640.40;844.80;;;;;;4985236;28;19906;-73
2023/04/22 11:51:57;;;;;;;;;;;640.90;793.60;;;;;;4986213;28;20351;-76
2023/04/22 11:54:29;;;;;;;;;;;640.10;819.20;;;;;;4992301;28;19910;-73
2023/04/22 11:56:55;;;;;;;;;;;640.60;844.80;;;;;;5006645;28;20259;-74
2023/04/22 11:59:23;;;;;;;;;;;640.90;870.40;;;;;;4984818;28;19961;-71
2023/04/22 12:01:49;;;;;;;;;;;;;;;;;;4986847;28;19976;-72
2023/04/22 12:04:15;;;;;;;;;;;666.20;870.40;;;;;;4999267;28;20255;-71
2023/04/22 12:06:41;;;;;;;;;;;666.40;819.20;;;;;;4992353;28;19906;-73
2023/04/22 12:09:06;;;;;;;;;;;666.20;819.20;;;;;;4996928;28;20358;-71
2023/04/22 12:11:32;;;;;;;;;;;666.30;819.20;;;;;;4995686;28;19952;-71
2023/04/22 12:14:04;;;;;;;;;;;666.30;819.20;;;;;;4995907;28;19912;-71
2023/04/22 12:16:38;;;;;;;;;;;666.40;819.20;;;;;;4990386;28;19913;-71
2023/04/22 12:19:04;;;;;;;;;;;666.40;793.60;;;;;;4991462;28;19913;-71
2023/04/22 12:21:30;;;;;;;;;;;691.20;793.60;;;;;;4988830;28;20378;-71
2023/04/22 12:24:03;;;;;;;;;;;691.20;793.60;;;;;;4987871;28;19913;-72
2023/04/22 12:26:28;;;;;;;;;;;691.20;793.60;;;;;;5003276;28;19910;-73
2023/04/22 12:28:55;;;;;;;;;;;666.50;793.60;;;;;;4998175;28;19906;-73
2023/04/22 12:31:21;;;;;;;;;;;666.40;819.20;;;;;;4988208;28;19906;-74
2023/04/22 12:33:46;;;;;;;;;;;666.40;844.80;;;;;;5040153;28;20431;-74
2023/04/22 12:36:12;;;;;;;;;;;666.40;819.20;;;;;;5030853;28;20012;-74
2023/04/22 12:38:38;;;;;;;;;;;666.50;793.60;;;;;;5027608;28;20270;-73
2023/04/22 12:41:04;;;;;;;;;;;666.20;819.20;;;;;;5024849;28;19911;-74
2023/04/22 12:43:34;;;;;;;;;;;666.20;793.60;;;;;;5032045;28;20362;-73
2023/04/22 12:45:59;;;;;;;;;;;666.30;793.60;;;;;;5040448;28;19906;-79
2023/04/22 12:48:25;;;;;;;;;;;666.50;793.60;;;;;;5028437;28;20004;-75
2023/04/22 12:50:50;;;;;;;;;;;665.90;819.20;;;;;;5030222;28;19906;-74
2023/04/22 12:53:16;;;;;;;;;;;666.20;844.80;;;;;;5034368;28;20399;-73
2023/04/22 12:55:41;;;;;;;;;;;666.30;819.20;;;;;;5039896;28;20372;-74
2023/04/22 12:58:07;;;;;;;;;;;666.40;793.60;;;;;;5034512;28;20357;-74
2023/04/22 13:00:33;;;;;;;;;;;666.30;768.00;;;;;;5031233;28;19913;-73
2023/04/22 13:02:58;;;;;;;;;;;666.40;793.60;;;;;;5033900;28;20286;-74
2023/04/22 13:05:24;;;;;;;;;;;666.50;793.60;;;;;;5025271;28;19905;-75
2023/04/22 13:07:50;;;;;;;;;;;691.30;768.00;;;;;;5023328;28;19911;-73
2023/04/22 13:10:15;;;;;;;;;;;691.30;768.00;;;;;;5029129;28;20408;-75
2023/04/22 13:12:42;;;;;;;;;;;691.30;819.20;;;;;;5036854;28;19928;-74
2023/04/22 13:15:09;;;;;;;;;;;691.30;793.60;;;;;;5031894;28;19904;-75
2023/04/22 13:17:35;;;;;;;;;;;691.30;819.20;;;;;;5035532;28;19905;-74
2023/04/22 13:20:00;;;;;;;;;;;691.30;793.60;;;;;;5033320;28;19912;-74
2023/04/22 13:22:27;;;;;;;;;;;691.30;793.60;;;;;;5035682;28;19936;-75
2023/04/22 13:24:52;;;;;;;;;;;691.30;793.60;;;;;;5034470;28;19909;-76
2023/04/22 13:27:18;;;;;;;;;;;691.30;793.60;;;;;;5041940;28;19909;-75
2023/04/22 13:29:44;;;;;;;;;;;691.30;844.80;;;;;;5026782;28;19985;-74
2023/04/22 13:32:10;;;;;;;;;;;666.50;844.80;;;;;;5038719;28;19917;-74
2023/04/22 13:34:37;;;;;;;;;;;665.90;844.80;;;;;;5028649;28;19913;-83
2023/04/22 13:37:03;;;;;;;;;;;665.90;870.40;;;;;;5032996;28;19916;-74
2023/04/22 13:39:28;;;;;;;;;;;666.00;870.40;;;;;;5031264;28;19913;-74